Time;durP1;ratioP1;P1;durP2;ratioP2;P2;SDS_P1;SDS_P2;PMS_P1;PMS_P2;Temp;Humidity;BMP_temperature;BMP_pressure;BME280_temperature;BME280_humidity;BME280_pressure;Samples;Min_cycle;Max_cycle;Signal;HPM_P1;HPM_P2
2021/03/29 00:00:12;;;;;;;61.58;38.85;;;;;;;5.46;65.15;101771.55;1769984;81;20990;-69
2021/03/29 00:02:40;;;;;;;68.28;41.18;;;;;;;5.34;65.44;101768.77;1773665;80;21363;-70
2021/03/29 00:05:11;;;;;;;61.58;42.15;;;;;;;5.24;65.64;101771.97;1752902;80;21030;-70
2021/03/29 00:07:43;;;;;;;53.98;38.28;;;;;;;5.14;65.97;101765.25;1778401;80;20954;-70
2021/03/29 00:10:13;;;;;;;53.08;35.65;;;;;;;5.07;66.59;101767.52;1778340;80;21006;-70
2021/03/29 00:12:43;;;;;;;56.02;37.00;;;;;;;5.03;66.83;101765.44;1778451;79;20990;-71
2021/03/29 00:15:17;;;;;;;60.30;38.60;;;;;;;4.98;67.24;101762.08;1778373;80;20915;-70
2021/03/29 00:17:46;;;;;;;52.67;34.10;;;;;;;4.99;67.65;101765.93;1778363;79;21384;-70
2021/03/29 00:20:20;;;;;;;53.33;34.53;;;;;;;5.01;67.83;101762.01;1752996;79;21448;-70
2021/03/29 00:22:48;;;;;;;58.38;38.53;;;;;;;5.03;68.38;101757.64;1778336;80;20986;-70
2021/03/29 00:25:18;;;;;;;65.83;41.92;;;;;;;5.06;68.33;101753.67;1778417;80;21460;-70
2021/03/29 00:27:47;;;;;;;69.97;43.55;;;;;;;5.06;67.71;101751.07;1778477;80;21380;-70
2021/03/29 00:30:24;;;;;;;79.60;42.45;;;;;;;5.04;67.43;101752.84;1778470;80;21036;-71
2021/03/29 00:32:52;;;;;;;62.90;37.63;;;;;;;4.97;67.48;101751.25;1778695;80;21049;-70
2021/03/29 00:35:23;;;;;;;62.62;41.98;;;;;;;4.89;67.17;101763.52;1778393;79;21010;-70
2021/03/29 00:37:56;;;;;;;62.40;39.75;;;;;;;4.74;66.95;101759.02;1778522;80;21334;-71
2021/03/29 00:40:26;;;;;;;56.88;37.50;;;;;;;4.64;67.40;101747.05;1778442;80;20954;-70
2021/03/29 00:43:27;;;;;;;61.60;41.35;;;;;;;4.60;68.12;101753.63;1752671;80;20943;-71
2021/03/29 00:45:56;;;;;;;60.15;37.83;;;;;;;4.59;68.58;101754.08;1778373;80;20990;-69
2021/03/29 00:48:27;;;;;;;63.10;36.85;;;;;;;4.57;69.32;101748.05;1778324;79;21089;-70
2021/03/29 00:51:24;;;;;;;55.05;36.63;;;;;;;4.59;69.59;101746.73;1778326;80;20935;-70
2021/03/29 00:53:59;;;;;;;50.98;33.10;;;;;;;4.61;70.01;101743.67;1778009;80;21380;-70
2021/03/29 00:56:27;;;;;;;57.17;33.25;;;;;;;4.65;70.41;101744.89;1778380;80;20950;-69
2021/03/29 00:58:55;;;;;;;50.00;33.42;;;;;;;4.69;70.36;101741.36;1778353;80;20947;-70
2021/03/29 01:01:40;;;;;;;52.13;32.23;;;;;;;4.72;70.50;101745.20;1752904;80;21543;-68
2021/03/29 01:04:11;;;;;;;51.58;34.55;;;;;;;4.77;70.43;101745.96;1778588;80;21487;-70
2021/03/29 01:06:45;;;;;;;52.83;32.33;;;;;;;4.85;70.17;101741.94;1778481;80;22677;-69
2021/03/29 01:09:18;;;;;;;51.48;32.30;;;;;;;4.90;70.00;101742.70;1778334;79;20947;-69
2021/03/29 01:12:03;;;;;;;69.92;40.30;;;;;;;4.92;70.14;101746.14;1778243;80;20958;-70
2021/03/29 01:14:39;;;;;;;59.08;36.88;;;;;;;4.93;70.15;101745.69;1754250;80;21621;-70
2021/03/29 01:17:21;;;;;;;67.80;41.08;;;;;;;4.96;70.02;101746.95;1778452;80;21001;-71
2021/03/29 01:20:10;;;;;;;54.73;35.55;;;;;;;4.98;69.91;101751.23;1778237;80;22698;-71
2021/03/29 01:22:47;;;;;;;53.13;36.00;;;;;;;4.98;69.09;101750.38;1778419;80;21043;-70
2021/03/29 01:25:41;;;;;;;53.10;35.23;;;;;;;4.92;68.12;101753.94;1778571;80;21017;-69
2021/03/29 01:28:17;;;;;;;54.35;35.92;;;;;;;4.85;69.08;101747.59;1778615;80;21463;-68
2021/03/29 01:30:46;;;;;;;59.45;36.25;;;;;;;4.80;69.05;101750.24;1778616;79;20939;-69
2021/03/29 01:33:15;;;;;;;50.52;35.40;;;;;;;4.72;68.66;101753.44;1778623;80;21288;-70
2021/03/29 01:35:50;;;;;;;50.65;32.03;;;;;;;4.65;68.46;101750.09;1778534;80;20962;-69
2021/03/29 01:38:19;;;;;;;47.88;32.28;;;;;;;4.59;68.42;101746.73;1778655;80;20958;-70
2021/03/29 01:40:46;;;;;;;57.58;36.58;;;;;;;4.51;68.33;101741.66;1752891;80;20910;-70
2021/03/29 01:43:14;;;;;;;60.12;38.95;;;;;;;4.46;68.86;101743.03;1752644;80;20938;-70
2021/03/29 01:45:42;;;;;;;49.23;32.58;;;;;;;4.43;69.56;101745.69;1778576;80;21320;-69
2021/03/29 01:48:11;;;;;;;51.13;32.53;;;;;;;4.42;69.90;101749.16;1778516;80;21611;-70
2021/03/29 01:50:41;;;;;;;47.17;32.60;;;;;;;4.41;70.25;101743.56;1778566;80;21468;-69
2021/03/29 01:53:09;;;;;;;43.78;30.00;;;;;;;4.40;70.73;101744.42;1753062;80;20955;-69
2021/03/29 01:55:38;;;;;;;53.00;34.35;;;;;;;4.41;70.99;101747.45;1778581;80;20895;-70
2021/03/29 01:58:07;;;;;;;47.98;32.23;;;;;;;4.43;71.06;101740.50;1778560;79;21718;-70
2021/03/29 02:00:49;;;;;;;58.65;33.35;;;;;;;4.48;71.15;101732.63;1778526;80;20958;-70
2021/03/29 02:03:18;;;;;;;49.23;32.75;;;;;;;4.54;71.01;101733.83;1778597;80;20907;-70
2021/03/29 02:05:47;;;;;;;46.45;30.72;;;;;;;4.60;71.02;101735.45;1778703;80;21512;-70
2021/03/29 02:08:17;;;;;;;46.85;31.87;;;;;;;4.63;70.26;101732.81;1778668;79;21472;-69
2021/03/29 02:10:45;;;;;;;57.70;33.73;;;;;;;4.59;68.77;101726.80;1778615;80;21372;-71
2021/03/29 02:13:19;;;;;;;47.67;31.10;;;;;;;4.52;68.58;101729.95;1778510;80;20954;-70
2021/03/29 02:16:00;;;;;;;46.58;31.33;;;;;;;4.46;68.43;101727.89;1778557;80;20990;-70
2021/03/29 02:18:33;;;;;;;47.55;31.80;;;;;;;4.40;68.50;101733.19;1778457;80;20963;-70
2021/03/29 02:21:06;;;;;;;46.63;32.45;;;;;;;4.28;68.98;101733.80;1778797;80;21006;-70
2021/03/29 02:23:34;;;;;;;47.53;30.90;;;;;;;4.19;69.04;101734.40;1778201;80;21195;-71
2021/03/29 02:26:05;;;;;;;48.75;31.52;;;;;;;4.04;68.54;101744.11;1778447;79;21436;-70
2021/03/29 02:28:33;;;;;;;57.55;33.18;;;;;;;3.92;68.50;101738.67;1778455;79;20994;-70
2021/03/29 02:31:01;;;;;;;45.75;30.05;;;;;;;3.85;69.01;101747.88;1778445;80;20963;-71
2021/03/29 02:33:29;;;;;;;60.10;33.90;;;;;;;3.77;69.37;101751.86;1778571;79;21389;-70
2021/03/29 02:35:57;;;;;;;45.00;31.87;;;;;;;3.70;70.00;101754.12;1728291;80;22695;-70
2021/03/29 02:38:25;;;;;;;50.00;32.03;;;;;;;3.63;70.40;101746.86;1778564;80;21336;-69
2021/03/29 02:40:54;;;;;;;55.58;34.18;;;;;;;3.61;71.05;101752.95;1778486;80;20930;-69
2021/03/29 02:43:23;;;;;;;47.58;32.95;;;;;;;3.60;71.34;101760.30;1778415;80;21436;-70
2021/03/29 02:46:00;;;;;;;51.15;34.92;;;;;;;3.57;71.54;101759.90;1778545;80;20927;-70
2021/03/29 02:48:35;;;;;;;48.68;32.67;;;;;;;3.54;71.28;101752.17;1778549;80;21369;-71
2021/03/29 02:51:10;;;;;;;51.55;34.23;;;;;;;3.47;70.81;101747.50;1778538;80;20954;-69
2021/03/29 02:53:39;;;;;;;48.02;33.15;;;;;;;3.40;71.42;101743.27;1778687;80;20975;-71
2021/03/29 02:56:11;;;;;;;52.30;33.02;;;;;;;3.38;72.53;101746.31;1778535;79;21496;-70
2021/03/29 02:58:42;;;;;;;49.93;33.00;;;;;;;3.39;73.17;101747.16;1778626;80;20958;-71
2021/03/29 03:01:11;;;;;;;48.13;31.07;;;;;;;3.43;73.42;101752.30;1778517;80;21362;-72
2021/03/29 03:03:41;;;;;;;50.17;31.40;;;;;;;3.50;72.82;101753.93;1774050;80;21042;-72
2021/03/29 03:06:10;;;;;;;49.25;33.33;;;;;;;3.53;72.61;101750.02;1769997;81;20991;-70
2021/03/29 03:08:38;;;;;;;50.03;32.35;;;;;;;3.51;72.72;101746.59;1769990;79;21286;-71
2021/03/29 03:11:10;;;;;;;54.77;35.43;;;;;;;3.53;73.51;101746.13;1770006;80;20938;-72
2021/03/29 03:13:42;;;;;;;56.50;34.23;;;;;;;3.59;73.58;101749.52;1769962;80;21002;-71
2021/03/29 03:16:11;;;;;;;61.95;33.53;;;;;;;3.61;72.93;101753.80;1769942;81;21039;-71
2021/03/29 03:18:40;;;;;;;52.65;33.35;;;;;;;3.61;73.04;101755.09;1750704;81;21046;-75
2021/03/29 03:21:13;;;;;;;42.95;29.82;;;;;;;3.63;73.42;101755.09;1769951;80;20994;-71
2021/03/29 03:23:53;;;;;;;42.10;28.50;;;;;;;3.66;73.48;101754.59;1751561;81;20975;-73
2021/03/29 03:26:22;;;;;;;52.48;30.82;;;;;;;3.68;73.45;101759.77;1769954;80;21197;-72
2021/03/29 03:28:52;;;;;;;48.52;30.32;;;;;;;3.69;73.76;101759.75;1769874;79;21476;-71
2021/03/29 03:31:20;;;;;;;48.28;29.20;;;;;;;3.73;73.88;101763.14;1770133;81;21018;-70
2021/03/29 03:33:49;;;;;;;47.67;29.20;;;;;;;3.79;73.82;101768.71;1769848;79;21552;-72
2021/03/29 03:36:22;;;;;;;49.23;29.70;;;;;;;3.85;73.70;101775.13;1769991;81;21563;-71
2021/03/29 03:38:51;;;;;;;45.92;27.87;;;;;;;3.89;73.49;101775.05;1769939;80;21364;-72
2021/03/29 03:41:32;;;;;;;48.28;27.40;;;;;;;3.91;73.34;101778.91;1770017;81;21543;-72
2021/03/29 03:44:01;;;;;;;48.48;28.17;;;;;;;3.89;73.29;101776.35;1770011;81;20990;-71
2021/03/29 03:46:39;;;;;;;43.78;28.92;;;;;;;3.88;73.26;101782.85;1750711;81;21058;-71
2021/03/29 03:49:19;;;;;;;44.33;27.85;;;;;;;3.89;73.18;101785.85;1769972;81;20938;-70
2021/03/29 03:51:47;;;;;;;45.90;29.02;;;;;;;3.88;73.11;101791.94;1770040;81;21356;-70
2021/03/29 03:54:17;;;;;;;56.80;31.87;;;;;;;3.87;73.17;101786.34;1770007;81;21038;-71
2021/03/29 03:56:46;;;;;;;52.73;33.00;;;;;;;3.87;73.16;101788.48;1770109;80;20939;-71
2021/03/29 03:59:15;;;;;;;51.68;34.35;;;;;;;3.89;73.11;101788.45;1769969;79;20927;-71
2021/03/29 04:01:58;;;;;;;58.13;36.88;;;;;;;3.89;73.08;101786.73;1769988;81;21372;-72
2021/03/29 04:04:27;;;;;;;52.17;34.65;;;;;;;3.90;72.99;101788.44;1769921;79;22371;-71
2021/03/29 04:06:56;;;;;;;49.30;34.13;;;;;;;3.95;72.87;101790.97;1770022;81;21018;-69
2021/03/29 04:12:08;;;;;;;56.25;32.38;;;;;;;4.11;72.65;101791.61;1769992;81;21552;-71
2021/03/29 04:14:36;;;;;;;56.35;32.58;;;;;;;4.24;72.47;101791.84;1770026;79;20931;-71
2021/03/29 04:17:05;;;;;;;51.98;31.90;;;;;;;4.40;72.22;101796.36;1769960;81;22353;-71
2021/03/29 04:19:36;;;;;;;52.83;32.00;;;;;;;4.55;71.96;101790.08;1769996;79;20935;-71
2021/03/29 04:22:04;;;;;;;51.10;31.35;;;;;;;4.73;71.48;101786.32;1769979;81;20962;-71
2021/03/29 04:24:33;;;;;;;49.18;30.85;;;;;;;4.88;70.87;101792.55;1769935;81;21428;-71
2021/03/29 04:27:02;;;;;;;43.28;26.70;;;;;;;4.98;70.31;101794.12;1770084;81;20947;-72
2021/03/29 04:29:30;;;;;;;42.90;25.85;;;;;;;5.08;69.48;101789.60;1770081;80;21807;-72
2021/03/29 04:31:58;;;;;;;41.92;25.20;;;;;;;5.13;69.16;101786.91;1769920;81;21385;-88
2021/03/29 04:34:26;;;;;;;47.62;25.88;;;;;;;5.18;68.77;101788.56;1770164;81;21361;-87
2021/03/29 04:36:54;;;;;;;35.65;24.25;;;;;;;5.27;68.24;101791.43;1770156;79;20943;-86
2021/03/29 04:39:23;;;;;;;33.63;23.42;;;;;;;5.38;67.84;101796.40;1769948;80;20986;-88
2021/03/29 04:41:52;;;;;;;47.40;24.82;;;;;;;5.59;67.39;101796.44;1770237;80;22309;-88
2021/03/29 04:44:20;;;;;;;40.15;25.08;;;;;;;5.90;66.30;101808.81;1770244;81;21010;-85
2021/03/29 04:46:50;;;;;;;38.67;23.62;;;;;;;6.19;65.42;101805.60;1770434;79;21003;-86
2021/03/29 04:49:18;;;;;;;39.50;23.20;;;;;;;6.51;64.38;101813.95;1769971;81;20931;-84
2021/03/29 04:51:47;;;;;;;38.23;21.87;;;;;;;6.89;63.11;101807.39;1770227;79;20989;-81
2021/03/29 04:54:19;;;;;;;26.20;18.17;;;;;;;7.28;62.10;101808.11;1769974;80;21360;-84
2021/03/29 04:56:48;;;;;;;32.00;19.27;;;;;;;7.66;60.64;101808.33;1770004;81;20951;-83
2021/03/29 04:59:16;;;;;;;27.05;18.75;;;;;;;8.01;59.24;101805.14;1769912;79;20903;-89
2021/03/29 05:01:46;;;;;;;30.97;18.55;;;;;;;8.29;58.60;101800.36;1769993;81;20995;-85
2021/03/29 05:04:14;;;;;;;25.37;16.62;;;;;;;8.63;58.02;101800.64;1769996;80;20911;-85
2021/03/29 05:06:44;;;;;;;28.17;16.40;;;;;;;9.03;56.54;101800.61;1770079;81;22160;-86
2021/03/29 05:09:12;;;;;;;23.40;16.85;;;;;;;9.37;55.58;101802.03;1769950;81;20963;-88
2021/03/29 05:11:54;;;;;;;28.75;17.55;;;;;;;9.69;55.24;101800.41;1770007;80;20935;-88
2021/03/29 05:14:22;;;;;;;28.23;19.73;;;;;;;10.07;54.21;101803.77;1770032;79;21146;-85
2021/03/29 05:18:54;;;;;;;29.60;21.90;;;;;;;10.79;51.98;101791.72;1816598;78;22503;-92
2021/03/29 05:21:24;;;;;;;28.35;22.65;;;;;;;11.04;51.15;101796.77;1789448;79;21364;-85
2021/03/29 05:23:53;;;;;;;26.95;21.30;;;;;;;11.32;50.01;101790.34;1789476;79;21987;-90
2021/03/29 05:26:22;;;;;;;29.18;21.77;;;;;;;11.56;49.48;101791.86;1789405;80;21578;-91
2021/03/29 05:28:51;;;;;;;27.10;20.97;;;;;;;11.81;48.91;101793.36;1789308;79;21065;-86
2021/03/29 05:31:19;;;;;;;34.13;23.05;;;;;;;12.07;48.15;101793.94;1772940;80;21377;-87
2021/03/29 05:33:48;;;;;;;29.95;19.65;;;;;;;12.34;46.67;101791.75;1759163;81;20969;-86
2021/03/29 05:36:17;;;;;;;30.65;22.65;;;;;;;12.57;45.94;101791.48;1758272;81;21361;-83
2021/03/29 05:38:45;;;;;;;25.17;17.62;;;;;;;12.72;45.53;101790.36;1758099;81;21317;-83
2021/03/29 05:41:14;;;;;;;28.27;18.45;;;;;;;12.89;45.60;101795.59;1757982;80;21045;-80
2021/03/29 05:43:44;;;;;;;21.97;17.67;;;;;;;13.17;44.42;101799.45;1757896;81;21017;-82
2021/03/29 05:46:12;;;;;;;23.45;17.62;;;;;;;13.42;44.24;101802.52;1758000;81;21010;-82
2021/03/29 05:48:41;;;;;;;29.12;18.37;;;;;;;13.58;43.15;101806.98;1728956;81;21462;-82
2021/03/29 05:51:09;;;;;;;26.90;17.55;;;;;;;13.70;43.13;101805.02;1757951;81;20962;-80
2021/03/29 05:53:37;;;;;;;20.72;17.87;;;;;;;13.91;41.99;101804.30;1758117;81;21333;-80
2021/03/29 05:56:08;;;;;;;27.82;18.92;;;;;;;14.07;41.60;101801.66;1757988;81;21507;-80
2021/03/29 06:01:06;;;;;;;26.02;18.87;;;;;;;14.46;41.01;101811.76;1758146;81;21372;-83
2021/03/29 06:03:39;;;;;;;29.18;20.72;;;;;;;14.64;40.39;101812.99;1757917;81;20926;-81
2021/03/29 06:06:18;;;;;;;32.98;22.80;;;;;;;15.03;40.07;101813.77;1758250;81;20954;-82
2021/03/29 06:08:52;;;;;;;33.33;23.55;;;;;;;15.03;40.07;101813.77;1758655;81;20970;-84
2021/03/29 06:11:30;;;;;;;34.75;22.10;;;;;;;15.40;39.87;101816.81;1758203;80;20950;-81
2021/03/29 06:14:21;;;;;;;40.23;21.60;;;;;;;15.65;39.13;101812.20;1753859;80;21443;-83
2021/03/29 06:16:59;;;;;;;34.80;21.95;;;;;;;15.81;39.17;101812.13;1758150;80;21045;-82
2021/03/29 06:19:47;;;;;;;30.23;20.02;;;;;;;16.00;38.46;101809.14;1759200;80;20993;-81
2021/03/29 06:22:32;;;;;;;35.50;23.00;;;;;;;16.13;38.91;101815.83;1759593;81;20949;-85
2021/03/29 06:25:19;;;;;;;33.90;22.13;;;;;;;16.31;38.11;101813.30;1760168;80;21065;-85
2021/03/29 06:27:54;;;;;;;36.73;23.60;;;;;;;16.52;37.74;101807.58;1759280;80;21367;-86
2021/03/29 06:30:32;;;;;;;31.55;20.50;;;;;;;16.73;37.62;101803.48;1757675;81;20978;-84
2021/03/29 06:33:14;;;;;;;39.65;20.55;;;;;;;17.02;36.61;101807.31;1757659;81;21045;-81
2021/03/29 06:35:52;;;;;;;34.95;22.30;;;;;;;17.33;36.35;101812.67;1757664;81;20942;-82
2021/03/29 06:38:32;;;;;;;33.30;20.75;;;;;;;17.66;35.16;101810.43;1757694;80;21451;-83
2021/03/29 06:41:01;;;;;;;26.33;17.75;;;;;;;17.84;34.32;101814.45;1757629;81;21361;-81
2021/03/29 06:43:34;;;;;;;26.93;17.62;;;;;;;17.90;33.99;101799.91;1757677;81;21009;-83
2021/03/29 06:46:25;;;;;;;21.62;15.75;;;;;;;18.00;33.80;101810.20;1757652;81;20954;-81
2021/03/29 06:48:55;;;;;;;27.17;17.50;;;;;;;18.13;32.53;101812.34;1757601;81;20958;-88
2021/03/29 06:51:34;;;;;;;31.15;17.60;;;;;;;18.11;32.16;101803.63;1758496;81;21029;-87
2021/03/29 06:54:07;;;;;;;21.77;17.35;;;;;;;18.10;32.61;101808.59;1759092;81;21006;-86
2021/03/29 06:56:40;;;;;;;29.07;17.42;;;;;;;18.19;32.47;101813.23;1759480;81;21053;-89
2021/03/29 06:59:19;;;;;;;32.73;17.77;;;;;;;18.21;32.56;101810.47;1760590;81;20915;-87
2021/03/29 07:01:52;;;;;;;26.02;16.27;;;;;;;18.20;33.18;101810.92;1757664;80;21032;-88
2021/03/29 07:04:25;;;;;;;26.85;14.43;;;;;;;18.35;32.82;101810.77;1757868;80;21042;-72
2021/03/29 07:06:54;;;;;;;28.65;14.43;;;;;;;18.49;32.74;101817.23;1757527;81;21370;-73
2021/03/29 07:09:23;;;;;;;22.15;14.50;;;;;;;18.63;32.59;101825.03;1757520;81;20977;-72
2021/03/29 07:11:52;;;;;;;29.20;16.05;;;;;;;18.72;32.00;101829.27;1757554;81;20994;-73
2021/03/29 07:14:21;;;;;;;24.07;14.53;;;;;;;18.62;32.33;101821.15;1757452;81;21005;-72
2021/03/29 07:16:51;;;;;;;25.40;14.40;;;;;;;18.71;32.95;101834.23;1757547;81;21002;-72
2021/03/29 07:19:18;;;;;;;19.00;13.08;;;;;;;19.01;30.91;101828.45;1745189;81;21195;-71
2021/03/29 07:21:48;;;;;;;24.80;13.88;;;;;;;19.10;30.95;101829.52;1723537;82;20954;-74
2021/03/29 07:24:17;;;;;;;16.90;12.98;;;;;;;19.08;30.89;101829.66;1744197;82;20950;-75
2021/03/29 07:26:59;;;;;;;19.40;13.53;;;;;;;18.91;30.99;101820.80;1744272;82;21493;-72
2021/03/29 07:29:34;;;;;;;17.73;13.70;;;;;;;18.79;30.97;101827.89;1744275;81;20938;-73
2021/03/29 07:32:05;;;;;;;23.65;15.20;;;;;;;18.74;31.27;101824.23;1744320;82;22199;-72
2021/03/29 07:34:51;;;;;;;25.57;14.60;;;;;;;18.92;31.10;101813.17;1744153;82;21519;-72
2021/03/29 07:37:33;;;;;;;23.42;16.15;;;;;;;19.19;31.28;101832.34;1744185;82;21050;-73
2021/03/29 07:40:20;;;;;;;21.62;14.38;;;;;;;19.43;30.70;101831.38;1744221;81;21468;-73
2021/03/29 07:42:53;;;;;;;23.92;13.53;;;;;;;19.70;29.88;101826.22;1744168;82;20895;-72
2021/03/29 07:45:28;;;;;;;21.85;15.93;;;;;;;19.68;29.87;101833.81;1744156;82;21378;-73
2021/03/29 07:47:57;;;;;;;28.90;16.95;;;;;;;19.73;30.08;101833.48;1723421;82;20994;-72
2021/03/29 07:50:33;;;;;;;27.87;18.50;;;;;;;19.86;30.23;101820.89;1744170;82;20950;-71
2021/03/29 07:53:06;;;;;;;21.12;14.50;;;;;;;20.09;30.13;101831.00;1744324;82;21038;-75
2021/03/29 07:55:40;;;;;;;23.95;14.98;;;;;;;20.20;29.50;101833.29;1744207;82;21006;-76
2021/03/29 07:58:17;;;;;;;22.87;13.50;;;;;;;20.12;30.00;101839.72;1744205;82;21355;-76
2021/03/29 08:00:59;;;;;;;18.07;13.78;;;;;;;20.20;30.02;101834.13;1744169;81;21497;-76
2021/03/29 08:03:33;;;;;;;16.10;13.25;;;;;;;20.31;29.62;101835.92;1744168;81;20927;-86
2021/03/29 08:06:03;;;;;;;21.15;13.10;;;;;;;20.40;30.05;101839.16;1744119;82;21054;-77
2021/03/29 08:08:38;;;;;;;23.07;14.55;;;;;;;20.66;29.76;101837.53;1744257;82;21389;-75
2021/03/29 08:11:16;;;;;;;20.23;12.73;;;;;;;20.92;29.70;101828.68;1744133;82;21310;-75
2021/03/29 08:13:55;;;;;;;19.57;13.35;;;;;;;21.13;29.15;101839.83;1744152;82;20967;-76
2021/03/29 08:16:29;;;;;;;19.87;12.33;;;;;;;21.15;28.99;101833.37;1744082;82;21089;-73
2021/03/29 08:19:20;;;;;;;19.23;13.53;;;;;;;21.21;29.10;101834.66;1752453;81;21018;-74
2021/03/29 08:22:09;;;;;;;22.07;13.38;;;;;;;21.45;29.24;101833.90;1757512;80;20946;-75
2021/03/29 08:24:45;;;;;;;19.27;11.25;;;;;;;21.59;27.99;101842.53;1757422;81;20953;-75
2021/03/29 08:27:22;;;;;;;17.35;12.73;;;;;;;21.31;28.60;101836.41;1757388;81;20966;-75
2021/03/29 08:29:53;;;;;;;20.08;12.13;;;;;;;21.17;29.25;101844.77;1757463;81;21404;-74
2021/03/29 08:32:37;;;;;;;19.40;13.90;;;;;;;21.21;28.70;101848.87;1757420;81;21033;-77
2021/03/29 08:35:13;;;;;;;17.55;12.55;;;;;;;21.21;28.10;101848.87;1757709;81;20958;-74
2021/03/29 08:37:49;;;;;;;22.62;16.10;;;;;;;21.24;28.10;101847.75;1757489;81;21492;-75
2021/03/29 08:40:21;;;;;;;22.60;15.08;;;;;;;21.31;28.25;101846.23;1757446;81;20930;-76
2021/03/29 08:42:58;;;;;;;20.60;13.78;;;;;;;21.48;28.20;101842.16;1757406;80;21101;-75
2021/03/29 08:45:27;;;;;;;17.57;13.93;;;;;;;21.68;28.23;101842.59;1730378;81;20946;-75
2021/03/29 08:48:00;;;;;;;17.23;14.07;;;;;;;21.81;28.58;101834.81;1757421;80;20938;-78
2021/03/29 08:50:38;;;;;;;17.92;13.45;;;;;;;22.01;28.13;101845.06;1757317;81;21357;-75
2021/03/29 08:53:08;;;;;;;14.38;12.55;;;;;;;22.10;27.96;101844.27;1757346;81;20974;-75
2021/03/29 08:55:39;;;;;;;18.10;12.35;;;;;;;22.02;27.74;101840.93;1757501;81;20938;-76
2021/03/29 08:58:08;;;;;;;14.23;12.73;;;;;;;21.89;28.01;101853.69;1757445;80;20965;-77
2021/03/29 09:00:39;;;;;;;18.10;12.20;;;;;;;21.82;27.78;101846.70;1757482;81;20938;-76
2021/03/29 09:03:17;;;;;;;13.68;11.90;;;;;;;21.50;28.37;101846.87;1757494;80;21198;-76
2021/03/29 09:05:46;;;;;;;17.50;12.95;;;;;;;21.55;28.41;101847.31;1757424;81;20962;-75
2021/03/29 09:08:16;;;;;;;15.63;13.28;;;;;;;21.70;28.14;101867.83;1757514;81;21404;-78
2021/03/29 09:10:47;;;;;;;24.90;13.58;;;;;;;21.52;28.26;101844.42;1757458;81;20894;-78
2021/03/29 09:13:16;;;;;;;12.80;11.33;;;;;;;21.29;28.67;101838.36;1757529;81;21037;-77
2021/03/29 09:15:49;;;;;;;17.92;12.90;;;;;;;20.84;28.85;101854.64;1730327;81;21367;-76
2021/03/29 09:18:27;;;;;;;18.73;14.28;;;;;;;20.54;29.15;101856.66;1754839;80;21026;-76
2021/03/29 09:20:55;;;;;;;17.15;13.32;;;;;;;20.28;29.85;101849.01;1744640;82;20938;-76
2021/03/29 09:23:30;;;;;;;16.50;12.58;;;;;;;20.35;29.94;101857.84;1744619;81;21038;-76
2021/03/29 09:25:54;;;;;;;17.92;12.93;;;;;;;20.15;30.28;101849.64;1744092;81;20955;-74
2021/03/29 09:31:05;;;;;;;21.75;13.32;;;;;;;19.36;31.36;101842.98;1741012;82;20975;-73
2021/03/29 09:33:34;;;;;;;16.50;13.30;;;;;;;19.27;32.41;101842.38;1744829;82;20990;-74
2021/03/29 09:36:08;;;;;;;18.15;14.13;;;;;;;19.20;32.08;101857.12;1744715;82;21600;-75
2021/03/29 09:38:39;;;;;;;18.75;14.38;;;;;;;18.86;32.70;101863.67;1744784;82;21079;-76
2021/03/29 09:41:25;;;;;;;25.72;13.90;;;;;;;18.51;33.11;101863.13;1744744;82;21369;-76
2021/03/29 09:43:54;;;;;;;27.70;15.95;;;;;;;18.15;33.70;101865.34;1717605;82;21023;-75
2021/03/29 09:46:30;;;;;;;19.23;13.98;;;;;;;17.75;34.54;101850.41;1744662;81;21428;-76
2021/03/29 09:49:14;;;;;;;17.92;14.30;;;;;;;17.37;35.30;101849.97;1744592;81;20947;-76
2021/03/29 09:51:46;;;;;;;21.80;15.55;;;;;;;17.04;36.04;101849.14;1744597;82;21029;-75
2021/03/29 09:54:32;;;;;;;16.80;13.80;;;;;;;16.88;36.47;101867.03;1744684;82;21342;-76
2021/03/29 09:57:18;;;;;;;19.80;14.30;;;;;;;16.86;36.20;101866.29;1744507;82;20967;-76
2021/03/29 09:59:46;;;;;;;18.17;13.38;;;;;;;16.72;36.19;101875.13;1744645;81;20942;-76
2021/03/29 10:02:27;;;;;;;21.23;14.68;;;;;;;16.50;36.62;101865.92;1744544;82;20978;-75
2021/03/29 10:05:05;;;;;;;23.65;16.30;;;;;;;16.22;37.42;101868.64;1744721;81;20942;-79
2021/03/29 10:07:34;;;;;;;24.18;16.35;;;;;;;16.05;37.61;101871.91;1744889;82;22136;-77
2021/03/29 10:10:07;;;;;;;18.17;14.45;;;;;;;15.77;38.47;101871.92;1744804;82;21022;-77
2021/03/29 10:12:37;;;;;;;18.48;15.05;;;;;;;15.77;38.47;101871.92;1744879;82;20939;-74
2021/03/29 10:15:09;;;;;;;17.15;14.53;;;;;;;15.67;38.48;101873.78;1744680;82;21066;-75
2021/03/29 10:17:38;;;;;;;20.30;13.22;;;;;;;15.40;39.00;101866.20;1744725;81;20935;-75
2021/03/29 10:20:16;;;;;;;19.73;14.30;;;;;;;15.40;39.00;101866.20;1744597;81;20958;-74
2021/03/29 10:22:45;;;;;;;19.60;14.80;;;;;;;15.19;39.07;101860.42;1744640;82;20958;-74
2021/03/29 10:25:19;;;;;;;18.57;14.00;;;;;;;14.97;39.73;101851.11;1744762;82;20990;-76
2021/03/29 10:27:56;;;;;;;24.45;14.87;;;;;;;14.78;40.48;101861.88;1744831;82;21412;-74
2021/03/29 10:30:31;;;;;;;16.45;14.70;;;;;;;14.56;41.11;101867.53;1744757;82;21007;-74
2021/03/29 10:33:04;;;;;;;22.93;15.85;;;;;;;14.24;42.29;101855.66;1744734;81;21199;-72
2021/03/29 10:35:33;;;;;;;;;;;;;;;14.24;42.29;101855.66;1747235;82;21022;-74
2021/03/29 10:38:03;;;;;;;21.62;15.80;;;;;;;14.39;42.40;101871.59;1744692;82;20153;-75
2021/03/29 10:40:33;;;;;;;17.77;15.32;;;;;;;14.57;42.08;101877.66;1744744;82;20966;-76
2021/03/29 10:43:03;;;;;;;16.35;13.72;;;;;;;14.99;41.29;101869.52;1744843;82;21472;-75
2021/03/29 10:45:31;;;;;;;20.05;13.93;;;;;;;15.60;39.69;101884.34;1744716;81;22346;-75
2021/03/29 10:47:59;;;;;;;22.20;15.93;;;;;;;16.16;38.62;101875.16;1744728;81;20979;-74
2021/03/29 10:50:30;;;;;;;19.67;14.95;;;;;;;16.49;38.08;101872.16;1744748;81;20939;-75
2021/03/29 10:52:58;;;;;;;17.37;12.93;;;;;;;16.76;37.36;101881.44;1744660;81;20914;-75
2021/03/29 10:55:27;;;;;;;17.98;12.25;;;;;;;16.84;36.96;101869.03;1744845;82;21491;-74
2021/03/29 10:57:55;;;;;;;13.90;12.25;;;;;;;16.81;36.56;101872.34;1744694;82;22225;-74
2021/03/29 11:00:25;;;;;;;14.13;12.63;;;;;;;16.60;36.90;101875.43;1744684;82;21121;-74
2021/03/29 11:02:53;;;;;;;16.82;13.18;;;;;;;16.38;37.01;101874.64;1744735;81;20959;-74
2021/03/29 11:05:23;;;;;;;17.55;13.55;;;;;;;16.17;37.53;101879.53;1744613;82;21042;-71
2021/03/29 11:07:51;;;;;;;16.82;12.43;;;;;;;15.96;37.72;101876.42;1744794;82;20975;-75
2021/03/29 11:10:20;;;;;;;19.62;13.58;;;;;;;15.81;37.86;101874.28;1744768;81;21479;-73
2021/03/29 11:12:49;;;;;;;14.63;12.30;;;;;;;15.75;38.16;101864.92;1744598;81;20959;-73
2021/03/29 11:15:19;;;;;;;16.23;13.30;;;;;;;15.90;38.22;101868.41;1745119;82;20951;-72
2021/03/29 11:17:48;;;;;;;17.35;13.08;;;;;;;16.16;38.09;101868.55;1745340;82;20987;-73
2021/03/29 11:20:19;;;;;;;15.93;13.25;;;;;;;16.45;37.08;101867.16;1744616;81;20931;-72
2021/03/29 11:22:47;;;;;;;18.45;13.68;;;;;;;16.66;37.10;101863.12;1744741;82;21398;-75
2021/03/29 11:25:15;;;;;;;15.95;13.18;;;;;;;16.81;36.66;101873.67;1744637;82;20990;-74
2021/03/29 11:27:44;;;;;;;15.50;12.93;;;;;;;16.73;35.92;101868.38;1744688;82;21010;-74
2021/03/29 11:30:14;;;;;;;18.32;14.95;;;;;;;16.52;36.43;101878.59;1744771;82;21479;-73
2021/03/29 11:32:43;;;;;;;16.35;13.72;;;;;;;16.24;37.25;101874.22;1744778;81;20950;-75
2021/03/29 11:35:12;;;;;;;19.27;13.58;;;;;;;16.00;37.49;101876.61;1744674;82;21499;-74
2021/03/29 11:37:40;;;;;;;21.48;14.45;;;;;;;15.72;38.13;101877.02;1744594;82;21045;-73
2021/03/29 11:40:13;;;;;;;20.00;14.05;;;;;;;15.45;38.78;101873.36;1744613;81;21034;-72
2021/03/29 11:42:43;;;;;;;18.42;14.07;;;;;;;14.96;39.92;101878.92;1744706;82;21491;-74
2021/03/29 11:45:12;;;;;;;21.50;15.83;;;;;;;14.96;39.92;101878.92;1744747;82;21546;-71